Kingville, South Carolina
Current Conditions -  °F | °C
As of 6:58 AM on Thursday 25 Dec 2014 (Local Time) from KMMT Reporting Station
Overcast Overcast  
Wind Chill: 46°   Ceiling: 16000
Heat Index: 50°   Visibility: 10mi
Dew Point: 41°   Wind: 10mph
Humidity: 71%   Direction: 270°W
Pressure: 30"   Gusts: NA
Location:  33.8428°N, 80.7414°W
Report Text: KMMT 251158Z AUTO 27009KT 10SM OVC160 10/05 A3000 RMK AO2 SLP161 70085 T00990049 10133 20099 52033 $
Loading
Personal Weather Stations






























Interactive Weather Map New forecast layout! Learn more

10-Day Weather Forecast

Advertisements
Track Severe Weather on mobile